sensor_id;sensor_type;location;lat;lon;timestamp;temperature;humidity
45983;DHT22;31711;47.158;7.346;2023-04-01T00:00:32;7.10;99.90
45983;DHT22;31711;47.158;7.346;2023-04-01T00:02:58;7.20;99.90
45983;DHT22;31711;47.158;7.346;2023-04-01T00:05:25;7.10;99.90
45983;DHT22;31711;47.158;7.346;2023-04-01T00:07:52;7.10;99.90
45983;DHT22;31711;47.158;7.346;2023-04-01T00:10:18;7.10;99.90
45983;DHT22;31711;47.158;7.346;2023-04-01T00:12:44;7.10;99.90
45983;DHT22;31711;47.158;7.346;2023-04-01T00:15:11;7.10;99.90
45983;DHT22;31711;47.158;7.346;2023-04-01T00:17:37;7.10;99.90
45983;DHT22;31711;47.158;7.346;2023-04-01T00:20:05;7.00;99.90
45983;DHT22;31711;47.158;7.346;2023-04-01T00:22:32;7.10;99.90
45983;DHT22;31711;47.158;7.346;2023-04-01T00:24:59;7.10;99.90
45983;DHT22;31711;47.158;7.346;2023-04-01T00:27:25;7.10;99.90
45983;DHT22;31711;47.158;7.346;2023-04-01T00:29:51;7.10;99.90
45983;DHT22;31711;47.158;7.346;2023-04-01T00:32:17;7.10;99.90
45983;DHT22;31711;47.158;7.346;2023-04-01T00:34:43;7.10;99.90
45983;DHT22;31711;47.158;7.346;2023-04-01T00:37:10;7.20;99.90
45983;DHT22;31711;47.158;7.346;2023-04-01T00:39:37;7.20;99.90
45983;DHT22;31711;47.158;7.346;2023-04-01T00:42:04;7.20;99.90
45983;DHT22;31711;47.158;7.346;2023-04-01T00:44:33;7.10;99.90
45983;DHT22;31711;47.158;7.346;2023-04-01T00:47:00;7.10;99.90
45983;DHT22;31711;47.158;7.346;2023-04-01T00:49:30;7.20;99.90
45983;DHT22;31711;47.158;7.346;2023-04-01T00:51:59;7.10;99.90
45983;DHT22;31711;47.158;7.346;2023-04-01T00:54:27;7.10;99.90
45983;DHT22;31711;47.158;7.346;2023-04-01T00:57:12;7.10;99.90
45983;DHT22;31711;47.158;7.346;2023-04-01T00:59:57;7.10;99.90
45983;DHT22;31711;47.158;7.346;2023-04-01T01:02:24;7.10;99.90
45983;DHT22;31711;47.158;7.346;2023-04-01T01:04:50;7.10;99.90
45983;DHT22;31711;47.158;7.346;2023-04-01T01:07:32;7.10;99.90
45983;DHT22;31711;47.158;7.346;2023-04-01T01:10:10;7.10;99.90
45983;DHT22;31711;47.158;7.346;2023-04-01T01:12:49;7.00;99.90
45983;DHT22;31711;47.158;7.346;2023-04-01T01:16:04;7.00;99.90
45983;DHT22;31711;47.158;7.346;2023-04-01T01:27:15;7.00;99.90
45983;DHT22;31711;47.158;7.346;2023-04-01T01:32:49;7.00;99.90
45983;DHT22;31711;47.158;7.346;2023-04-01T01:35:37;7.00;99.90
45983;DHT22;31711;47.158;7.346;2023-04-01T01:38:07;7.00;99.90
45983;DHT22;31711;47.158;7.346;2023-04-01T01:40:37;7.00;99.90
45983;DHT22;31711;47.158;7.346;2023-04-01T01:43:08;6.90;99.90
45983;DHT22;31711;47.158;7.346;2023-04-01T01:45:37;7.00;99.90
45983;DHT22;31711;47.158;7.346;2023-04-01T01:48:05;7.00;99.90
45983;DHT22;31711;47.158;7.346;2023-04-01T01:50:33;7.00;99.90
45983;DHT22;31711;47.158;7.346;2023-04-01T01:53:03;7.00;99.90
45983;DHT22;31711;47.158;7.346;2023-04-01T01:55:33;7.00;99.90
45983;DHT22;31711;47.158;7.346;2023-04-01T01:58:13;7.00;99.90
45983;DHT22;31711;47.158;7.346;2023-04-01T02:00:41;7.00;99.90
45983;DHT22;31711;47.158;7.346;2023-04-01T02:03:08;7.00;99.90
45983;DHT22;31711;47.158;7.346;2023-04-01T02:05:35;7.00;99.90
45983;DHT22;31711;47.158;7.346;2023-04-01T02:08:13;7.00;99.90
45983;DHT22;31711;47.158;7.346;2023-04-01T02:10:43;7.00;99.90
45983;DHT22;31711;47.158;7.346;2023-04-01T02:13:17;7.00;99.90
45983;DHT22;31711;47.158;7.346;2023-04-01T02:15:47;7.00;99.90
45983;DHT22;31711;47.158;7.346;2023-04-01T02:18:15;7.00;99.90
45983;DHT22;31711;47.158;7.346;2023-04-01T02:20:44;7.00;99.90
45983;DHT22;31711;47.158;7.346;2023-04-01T02:23:11;7.00;99.90
45983;DHT22;31711;47.158;7.346;2023-04-01T02:25:37;7.10;99.90
45983;DHT22;31711;47.158;7.346;2023-04-01T02:28:06;7.10;99.90
45983;DHT22;31711;47.158;7.346;2023-04-01T02:30:35;7.00;99.90
45983;DHT22;31711;47.158;7.346;2023-04-01T02:33:03;7.00;99.90
45983;DHT22;31711;47.158;7.346;2023-04-01T02:35:35;7.00;99.90
45983;DHT22;31711;47.158;7.346;2023-04-01T02:38:03;7.10;99.90
45983;DHT22;31711;47.158;7.346;2023-04-01T02:40:44;7.00;99.90
45983;DHT22;31711;47.158;7.346;2023-04-01T02:43:10;7.00;99.90
45983;DHT22;31711;47.158;7.346;2023-04-01T02:45:36;6.90;99.90
45983;DHT22;31711;47.158;7.346;2023-04-01T02:48:03;6.90;99.90
45983;DHT22;31711;47.158;7.346;2023-04-01T02:50:29;6.90;99.90
45983;DHT22;31711;47.158;7.346;2023-04-01T02:52:55;6.90;99.90
45983;DHT22;31711;47.158;7.346;2023-04-01T02:55:21;6.90;99.90
45983;DHT22;31711;47.158;7.346;2023-04-01T02:57:47;6.90;99.90
45983;DHT22;31711;47.158;7.346;2023-04-01T03:00:14;6.90;99.90
45983;DHT22;31711;47.158;7.346;2023-04-01T03:02:40;6.90;99.90
45983;DHT22;31711;47.158;7.346;2023-04-01T03:05:06;6.90;99.90
45983;DHT22;31711;47.158;7.346;2023-04-01T03:07:33;6.90;99.90
45983;DHT22;31711;47.158;7.346;2023-04-01T03:09:59;6.80;99.90
45983;DHT22;31711;47.158;7.346;2023-04-01T03:12:25;6.80;99.90
45983;DHT22;31711;47.158;7.346;2023-04-01T03:14:51;6.80;99.90
45983;DHT22;31711;47.158;7.346;2023-04-01T03:17:16;6.80;99.90
45983;DHT22;31711;47.158;7.346;2023-04-01T03:19:42;6.80;99.90
45983;DHT22;31711;47.158;7.346;2023-04-01T03:22:10;6.80;99.90
45983;DHT22;31711;47.158;7.346;2023-04-01T03:24:36;6.80;99.90
45983;DHT22;31711;47.158;7.346;2023-04-01T03:27:02;6.80;99.90
45983;DHT22;31711;47.158;7.346;2023-04-01T03:29:28;6.90;99.90
45983;DHT22;31711;47.158;7.346;2023-04-01T03:31:54;6.80;99.90
45983;DHT22;31711;47.158;7.346;2023-04-01T03:34:24;6.80;99.90
45983;DHT22;31711;47.158;7.346;2023-04-01T03:36:51;6.70;99.90
45983;DHT22;31711;47.158;7.346;2023-04-01T03:39:17;6.80;99.90
45983;DHT22;31711;47.158;7.346;2023-04-01T03:41:45;6.70;99.90
45983;DHT22;31711;47.158;7.346;2023-04-01T03:44:11;6.70;99.90
45983;DHT22;31711;47.158;7.346;2023-04-01T03:46:37;6.70;99.90
45983;DHT22;31711;47.158;7.346;2023-04-01T03:49:07;6.60;99.90
45983;DHT22;31711;47.158;7.346;2023-04-01T03:51:46;6.60;99.90
45983;DHT22;31711;47.158;7.346;2023-04-01T03:54:12;6.60;99.90
45983;DHT22;31711;47.158;7.346;2023-04-01T03:56:38;6.60;99.90
45983;DHT22;31711;47.158;7.346;2023-04-01T03:59:07;6.60;99.90
45983;DHT22;31711;47.158;7.346;2023-04-01T04:01:33;6.50;99.90
45983;DHT22;31711;47.158;7.346;2023-04-01T04:04:00;6.60;99.90
45983;DHT22;31711;47.158;7.346;2023-04-01T04:06:26;6.60;99.90
45983;DHT22;31711;47.158;7.346;2023-04-01T04:08:53;6.60;99.90
45983;DHT22;31711;47.158;7.346;2023-04-01T04:11:20;6.60;99.90
45983;DHT22;31711;47.158;7.346;2023-04-01T04:13:46;6.60;99.90
45983;DHT22;31711;47.158;7.346;2023-04-01T04:16:13;6.50;99.90
45983;DHT22;31711;47.158;7.346;2023-04-01T04:18:40;6.60;99.90
45983;DHT22;31711;47.158;7.346;2023-04-01T04:21:06;6.50;99.90
45983;DHT22;31711;47.158;7.346;2023-04-01T04:23:32;6.50;99.90
45983;DHT22;31711;47.158;7.346;2023-04-01T04:26:03;6.60;99.90
45983;DHT22;31711;47.158;7.346;2023-04-01T04:28:29;6.50;99.90
45983;DHT22;31711;47.158;7.346;2023-04-01T04:30:55;6.50;99.90
45983;DHT22;31711;47.158;7.346;2023-04-01T04:33:22;6.50;99.90
45983;DHT22;31711;47.158;7.346;2023-04-01T04:35:49;6.50;99.90
45983;DHT22;31711;47.158;7.346;2023-04-01T04:38:15;6.60;99.90
45983;DHT22;31711;47.158;7.346;2023-04-01T04:40:42;6.60;99.90
45983;DHT22;31711;47.158;7.346;2023-04-01T04:43:12;6.60;99.90
45983;DHT22;31711;47.158;7.346;2023-04-01T04:45:39;6.60;99.90
45983;DHT22;31711;47.158;7.346;2023-04-01T04:48:10;6.60;99.90
45983;DHT22;31711;47.158;7.346;2023-04-01T04:50:40;6.60;99.90
45983;DHT22;31711;47.158;7.346;2023-04-01T04:53:06;6.60;99.90
45983;DHT22;31711;47.158;7.346;2023-04-01T04:55:32;6.60;99.90
45983;DHT22;31711;47.158;7.346;2023-04-01T04:57:58;6.60;99.90
45983;DHT22;31711;47.158;7.346;2023-04-01T05:00:24;6.60;99.90
45983;DHT22;31711;47.158;7.346;2023-04-01T05:02:50;6.60;99.90
45983;DHT22;31711;47.158;7.346;2023-04-01T05:05:15;6.60;99.90
45983;DHT22;31711;47.158;7.346;2023-04-01T05:07:41;6.60;99.90
45983;DHT22;31711;47.158;7.346;2023-04-01T05:10:08;6.60;99.90
45983;DHT22;31711;47.158;7.346;2023-04-01T05:12:34;6.60;99.90
45983;DHT22;31711;47.158;7.346;2023-04-01T05:15:05;6.60;99.90
45983;DHT22;31711;47.158;7.346;2023-04-01T05:17:31;6.60;99.90
45983;DHT22;31711;47.158;7.346;2023-04-01T05:19:57;6.60;99.90
45983;DHT22;31711;47.158;7.346;2023-04-01T05:22:23;6.60;99.90
45983;DHT22;31711;47.158;7.346;2023-04-01T05:24:49;6.60;99.90
45983;DHT22;31711;47.158;7.346;2023-04-01T05:27:16;6.60;99.90
45983;DHT22;31711;47.158;7.346;2023-04-01T05:29:42;6.60;99.90
45983;DHT22;31711;47.158;7.346;2023-04-01T05:32:08;6.60;99.90
45983;DHT22;31711;47.158;7.346;2023-04-01T05:34:33;6.70;99.90
45983;DHT22;31711;47.158;7.346;2023-04-01T05:36:59;6.60;99.90
45983;DHT22;31711;47.158;7.346;2023-04-01T05:39:25;6.60;99.90
45983;DHT22;31711;47.158;7.346;2023-04-01T05:41:52;6.60;99.90
45983;DHT22;31711;47.158;7.346;2023-04-01T05:44:18;6.60;99.90
45983;DHT22;31711;47.158;7.346;2023-04-01T05:46:43;6.70;99.90
45983;DHT22;31711;47.158;7.346;2023-04-01T05:49:09;6.70;99.90
45983;DHT22;31711;47.158;7.346;2023-04-01T05:51:35;6.70;99.90
45983;DHT22;31711;47.158;7.346;2023-04-01T05:54:03;6.70;99.90
45983;DHT22;31711;47.158;7.346;2023-04-01T05:56:29;6.70;99.90
45983;DHT22;31711;47.158;7.346;2023-04-01T05:58:55;6.70;99.90
45983;DHT22;31711;47.158;7.346;2023-04-01T06:01:21;6.70;99.90
45983;DHT22;31711;47.158;7.346;2023-04-01T06:03:47;6.70;99.90
45983;DHT22;31711;47.158;7.346;2023-04-01T06:06:15;6.60;99.90
45983;DHT22;31711;47.158;7.346;2023-04-01T06:08:42;6.60;99.90
45983;DHT22;31711;47.158;7.346;2023-04-01T06:25:36;6.50;99.90
45983;DHT22;31711;47.158;7.346;2023-04-01T06:28:37;6.50;99.90
45983;DHT22;31711;47.158;7.346;2023-04-01T06:37:11;6.50;99.90
45983;DHT22;31711;47.158;7.346;2023-04-01T06:39:56;6.50;99.90
45983;DHT22;31711;47.158;7.346;2023-04-01T06:42:39;6.60;99.90
45983;DHT22;31711;47.158;7.346;2023-04-01T06:56:37;6.60;99.90
45983;DHT22;31711;47.158;7.346;2023-04-01T06:59:12;6.60;99.90
45983;DHT22;31711;47.158;7.346;2023-04-01T07:01:52;6.70;99.90
45983;DHT22;31711;47.158;7.346;2023-04-01T07:04:34;6.70;99.90
45983;DHT22;31711;47.158;7.346;2023-04-01T07:07:05;6.80;99.90
45983;DHT22;31711;47.158;7.346;2023-04-01T07:09:40;6.80;99.90
45983;DHT22;31711;47.158;7.346;2023-04-01T07:15:41;6.70;99.90
45983;DHT22;31711;47.158;7.346;2023-04-01T07:18:15;6.70;99.90
45983;DHT22;31711;47.158;7.346;2023-04-01T07:20:42;6.70;99.90
45983;DHT22;31711;47.158;7.346;2023-04-01T07:23:24;6.70;99.90
45983;DHT22;31711;47.158;7.346;2023-04-01T07:26:00;6.70;99.90
45983;DHT22;31711;47.158;7.346;2023-04-01T07:28:31;6.80;99.90
45983;DHT22;31711;47.158;7.346;2023-04-01T07:36:08;6.80;99.90
45983;DHT22;31711;47.158;7.346;2023-04-01T07:41:56;6.80;99.90
45983;DHT22;31711;47.158;7.346;2023-04-01T07:55:29;6.90;99.90
45983;DHT22;31711;47.158;7.346;2023-04-01T08:00:51;7.10;99.90
45983;DHT22;31711;47.158;7.346;2023-04-01T08:03:31;7.00;99.90
45983;DHT22;31711;47.158;7.346;2023-04-01T08:06:08;7.00;99.90
45983;DHT22;31711;47.158;7.346;2023-04-01T08:11:34;7.00;99.90
45983;DHT22;31711;47.158;7.346;2023-04-01T08:14:33;7.00;99.90
45983;DHT22;31711;47.158;7.346;2023-04-01T08:22:23;7.00;99.90
45983;DHT22;31711;47.158;7.346;2023-04-01T08:24:51;7.10;99.90
45983;DHT22;31711;47.158;7.346;2023-04-01T08:27:41;7.10;99.90
45983;DHT22;31711;47.158;7.346;2023-04-01T08:35:37;7.30;99.90
45983;DHT22;31711;47.158;7.346;2023-04-01T08:38:20;7.30;99.90
45983;DHT22;31711;47.158;7.346;2023-04-01T08:52:36;7.30;99.90
45983;DHT22;31711;47.158;7.346;2023-04-01T08:55:23;7.40;99.90
45983;DHT22;31711;47.158;7.346;2023-04-01T08:58:24;7.30;99.90
45983;DHT22;31711;47.158;7.346;2023-04-01T09:06:44;7.30;99.90
45983;DHT22;31711;47.158;7.346;2023-04-01T09:26:33;7.50;99.90
45983;DHT22;31711;47.158;7.346;2023-04-01T09:32:10;7.40;99.90
45983;DHT22;31711;47.158;7.346;2023-04-01T09:40:14;7.50;99.90
45983;DHT22;31711;47.158;7.346;2023-04-01T09:42:44;7.40;99.90
45983;DHT22;31711;47.158;7.346;2023-04-01T09:46:06;7.40;99.90
45983;DHT22;31711;47.158;7.346;2023-04-01T09:48:43;7.40;99.90
45983;DHT22;31711;47.158;7.346;2023-04-01T09:51:39;7.60;99.90
45983;DHT22;31711;47.158;7.346;2023-04-01T10:11:08;8.30;99.90
45983;DHT22;31711;47.158;7.346;2023-04-01T10:13:56;8.20;99.90
45983;DHT22;31711;47.158;7.346;2023-04-01T10:17:26;8.10;99.90
45983;DHT22;31711;47.158;7.346;2023-04-01T10:25:46;8.10;99.90
45983;DHT22;31711;47.158;7.346;2023-04-01T10:34:20;8.50;99.90
45983;DHT22;31711;47.158;7.346;2023-04-01T10:37:16;8.90;99.90
45983;DHT22;31711;47.158;7.346;2023-04-01T10:45:42;9.50;99.90
45983;DHT22;31711;47.158;7.346;2023-04-01T10:52:11;9.20;99.90
45983;DHT22;31711;47.158;7.346;2023-04-01T10:57:19;9.10;99.90
45983;DHT22;31711;47.158;7.346;2023-04-01T11:00:10;9.10;99.90
45983;DHT22;31711;47.158;7.346;2023-04-01T11:28:52;9.10;99.90
45983;DHT22;31711;47.158;7.346;2023-04-01T11:31:40;9.10;99.90
45983;DHT22;31711;47.158;7.346;2023-04-01T12:01:29;10.30;99.90
45983;DHT22;31711;47.158;7.346;2023-04-01T12:07:59;10.70;99.90
45983;DHT22;31711;47.158;7.346;2023-04-01T12:10:28;10.70;99.90
45983;DHT22;31711;47.158;7.346;2023-04-01T12:26:25;9.90;99.90
45983;DHT22;31711;47.158;7.346;2023-04-01T12:40:34;11.10;99.90
45983;DHT22;31711;47.158;7.346;2023-04-01T12:43:28;11.10;99.90
45983;DHT22;31711;47.158;7.346;2023-04-01T12:51:43;11.20;99.90
45983;DHT22;31711;47.158;7.346;2023-04-01T13:03:04;11.00;99.90
45983;DHT22;31711;47.158;7.346;2023-04-01T13:11:38;10.20;99.90
45983;DHT22;31711;47.158;7.346;2023-04-01T13:18:16;10.20;99.90
45983;DHT22;31711;47.158;7.346;2023-04-01T13:20:49;10.10;99.90
45983;DHT22;31711;47.158;7.346;2023-04-01T13:26:26;10.50;99.90
45983;DHT22;31711;47.158;7.346;2023-04-01T13:29:32;10.80;99.90
45983;DHT22;31711;47.158;7.346;2023-04-01T13:34:32;10.70;99.90
45983;DHT22;31711;47.158;7.346;2023-04-01T13:43:00;10.40;99.90
45983;DHT22;31711;47.158;7.346;2023-04-01T13:52:08;10.70;99.90
45983;DHT22;31711;47.158;7.346;2023-04-01T13:54:51;10.70;99.90
45983;DHT22;31711;47.158;7.346;2023-04-01T14:13:03;11.30;99.90
45983;DHT22;31711;47.158;7.346;2023-04-01T14:40:55;12.00;99.90
45983;DHT22;31711;47.158;7.346;2023-04-01T14:43:54;11.90;99.90
45983;DHT22;31711;47.158;7.346;2023-04-01T14:46:29;11.70;99.90
45983;DHT22;31711;47.158;7.346;2023-04-01T14:51:46;11.10;99.90
45983;DHT22;31711;47.158;7.346;2023-04-01T14:54:15;10.40;99.90
45983;DHT22;31711;47.158;7.346;2023-04-01T14:56:50;10.20;99.90
45983;DHT22;31711;47.158;7.346;2023-04-01T14:59:26;10.00;99.90
45983;DHT22;31711;47.158;7.346;2023-04-01T15:02:00;10.20;99.90
45983;DHT22;31711;47.158;7.346;2023-04-01T15:04:54;10.20;99.90
45983;DHT22;31711;47.158;7.346;2023-04-01T15:18:39;9.00;99.90
45983;DHT22;31711;47.158;7.346;2023-04-01T15:32:01;10.00;99.90
45983;DHT22;31711;47.158;7.346;2023-04-01T15:48:17;9.70;99.90
45983;DHT22;31711;47.158;7.346;2023-04-01T15:50:57;9.60;99.90
45983;DHT22;31711;47.158;7.346;2023-04-01T16:12:36;9.00;99.90
45983;DHT22;31711;47.158;7.346;2023-04-01T16:15:20;9.10;99.90
45983;DHT22;31711;47.158;7.346;2023-04-01T16:18:16;9.50;99.90
45983;DHT22;31711;47.158;7.346;2023-04-01T16:23:56;9.70;99.90
45983;DHT22;31711;47.158;7.346;2023-04-01T16:38:09;10.40;99.90
45983;DHT22;31711;47.158;7.346;2023-04-01T16:44:09;10.00;99.90
45983;DHT22;31711;47.158;7.346;2023-04-01T16:46:40;9.90;99.90
45983;DHT22;31711;47.158;7.346;2023-04-01T16:54:55;9.70;99.90
45983;DHT22;31711;47.158;7.346;2023-04-01T17:08:38;9.30;99.90
45983;DHT22;31711;47.158;7.346;2023-04-01T17:11:28;9.30;99.90
45983;DHT22;31711;47.158;7.346;2023-04-01T17:14:11;9.30;99.90
45983;DHT22;31711;47.158;7.346;2023-04-01T17:27:59;9.00;99.90
45983;DHT22;31711;47.158;7.346;2023-04-01T17:30:35;9.00;99.90
45983;DHT22;31711;47.158;7.346;2023-04-01T17:33:14;8.90;99.90
45983;DHT22;31711;47.158;7.346;2023-04-01T17:36:45;9.00;99.90
45983;DHT22;31711;47.158;7.346;2023-04-01T17:38:56;8.90;99.90
45983;DHT22;31711;47.158;7.346;2023-04-01T17:41:54;8.90;99.90
45983;DHT22;31711;47.158;7.346;2023-04-01T17:44:29;8.80;99.90
45983;DHT22;31711;47.158;7.346;2023-04-01T17:47:31;8.70;99.90
45983;DHT22;31711;47.158;7.346;2023-04-01T17:52:43;8.60;99.90
45983;DHT22;31711;47.158;7.346;2023-04-01T18:06:21;8.40;99.90
45983;DHT22;31711;47.158;7.346;2023-04-01T18:09:07;8.40;99.90
45983;DHT22;31711;47.158;7.346;2023-04-01T18:17:49;8.40;99.90
45983;DHT22;31711;47.158;7.346;2023-04-01T18:22:59;8.50;99.90
45983;DHT22;31711;47.158;7.346;2023-04-01T18:25:36;8.40;99.90
45983;DHT22;31711;47.158;7.346;2023-04-01T18:30:55;8.40;99.90
45983;DHT22;31711;47.158;7.346;2023-04-01T18:39:23;8.20;99.90
45983;DHT22;31711;47.158;7.346;2023-04-01T18:44:50;8.20;99.90
45983;DHT22;31711;47.158;7.346;2023-04-01T18:50:21;8.30;99.90
45983;DHT22;31711;47.158;7.346;2023-04-01T18:52:54;8.40;99.90
45983;DHT22;31711;47.158;7.346;2023-04-01T18:57:53;8.30;99.90
45983;DHT22;31711;47.158;7.346;2023-04-01T19:00:32;8.30;99.90
45983;DHT22;31711;47.158;7.346;2023-04-01T19:03:52;8.10;99.90
45983;DHT22;31711;47.158;7.346;2023-04-01T19:06:00;8.10;99.90
45983;DHT22;31711;47.158;7.346;2023-04-01T19:08:35;8.00;99.90
45983;DHT22;31711;47.158;7.346;2023-04-01T19:17:02;7.80;99.90
45983;DHT22;31711;47.158;7.346;2023-04-01T19:27:46;7.70;99.90
45983;DHT22;31711;47.158;7.346;2023-04-01T19:33:06;7.70;99.90
45983;DHT22;31711;47.158;7.346;2023-04-01T19:38:23;7.60;99.90
45983;DHT22;31711;47.158;7.346;2023-04-01T19:40:55;7.40;99.90
45983;DHT22;31711;47.158;7.346;2023-04-01T19:46:20;7.30;99.90
45983;DHT22;31711;47.158;7.346;2023-04-01T19:51:45;7.30;99.90
45983;DHT22;31711;47.158;7.346;2023-04-01T19:54:24;7.20;99.90
45983;DHT22;31711;47.158;7.346;2023-04-01T19:59:33;7.20;99.90
45983;DHT22;31711;47.158;7.346;2023-04-01T20:04:44;7.20;99.90
45983;DHT22;31711;47.158;7.346;2023-04-01T20:07:27;7.20;99.90
45983;DHT22;31711;47.158;7.346;2023-04-01T20:10:19;7.20;99.90
45983;DHT22;31711;47.158;7.346;2023-04-01T20:13:20;7.20;99.90
45983;DHT22;31711;47.158;7.346;2023-04-01T20:18:34;6.90;99.90
45983;DHT22;31711;47.158;7.346;2023-04-01T20:21:06;6.90;99.90
45983;DHT22;31711;47.158;7.346;2023-04-01T20:23:56;7.00;99.90
45983;DHT22;31711;47.158;7.346;2023-04-01T20:26:35;7.00;99.90
45983;DHT22;31711;47.158;7.346;2023-04-01T20:29:24;7.00;99.90
45983;DHT22;31711;47.158;7.346;2023-04-01T20:32:04;7.00;99.90
45983;DHT22;31711;47.158;7.346;2023-04-01T20:35:22;7.10;99.90
45983;DHT22;31711;47.158;7.346;2023-04-01T20:40:26;7.10;99.90
45983;DHT22;31711;47.158;7.346;2023-04-01T20:51:23;7.10;99.90
45983;DHT22;31711;47.158;7.346;2023-04-01T21:16:10;6.80;99.90
45983;DHT22;31711;47.158;7.346;2023-04-01T21:26:56;6.80;99.90
45983;DHT22;31711;47.158;7.346;2023-04-01T22:00:07;7.00;99.90
45983;DHT22;31711;47.158;7.346;2023-04-01T22:13:16;7.20;99.90
45983;DHT22;31711;47.158;7.346;2023-04-01T22:18:43;7.20;99.90
45983;DHT22;31711;47.158;7.346;2023-04-01T22:21:26;7.30;99.90
45983;DHT22;31711;47.158;7.346;2023-04-01T22:29:19;7.20;99.90
45983;DHT22;31711;47.158;7.346;2023-04-01T22:32:12;7.20;99.90
45983;DHT22;31711;47.158;7.346;2023-04-01T22:42:46;7.50;99.90
45983;DHT22;31711;47.158;7.346;2023-04-01T22:50:51;7.20;99.90
45983;DHT22;31711;47.158;7.346;2023-04-01T22:56:54;7.20;99.90
45983;DHT22;31711;47.158;7.346;2023-04-01T23:05:28;7.00;99.90
45983;DHT22;31711;47.158;7.346;2023-04-01T23:11:02;6.90;99.90
45983;DHT22;31711;47.158;7.346;2023-04-01T23:13:41;6.90;99.90
45983;DHT22;31711;47.158;7.346;2023-04-01T23:16:10;6.90;99.90
45983;DHT22;31711;47.158;7.346;2023-04-01T23:21:42;6.90;99.90
45983;DHT22;31711;47.158;7.346;2023-04-01T23:24:28;6.90;99.90
45983;DHT22;31711;47.158;7.346;2023-04-01T23:29:37;7.00;99.90
45983;DHT22;31711;47.158;7.346;2023-04-01T23:32:21;7.00;99.90
45983;DHT22;31711;47.158;7.346;2023-04-01T23:34:52;6.90;99.90
45983;DHT22;31711;47.158;7.346;2023-04-01T23:37:20;7.00;99.90
45983;DHT22;31711;47.158;7.346;2023-04-01T23:39:54;7.10;99.90
45983;DHT22;31711;47.158;7.346;2023-04-01T23:42:33;7.10;99.90
45983;DHT22;31711;47.158;7.346;2023-04-01T23:45:18;7.10;99.90
45983;DHT22;31711;47.158;7.346;2023-04-01T23:47:49;7.20;99.90
45983;DHT22;31711;47.158;7.346;2023-04-01T23:50:34;7.20;99.90
45983;DHT22;31711;47.158;7.346;2023-04-01T23:53:04;7.20;99.90
45983;DHT22;31711;47.158;7.346;2023-04-01T23:55:40;7.20;99.90
45983;DHT22;31711;47.158;7.346;2023-04-01T23:58:23;7.00;99.90
